sensor_id;sensor_type;location;lat;lon;timestamp;temperature;humidity
48998;DHT22;34807;51.456;7.244;2022-07-09T00:01:38;20.00;69.00
48998;DHT22;34807;51.456;7.244;2022-07-09T00:04:03;19.90;69.20
48998;DHT22;34807;51.456;7.244;2022-07-09T00:06:29;19.90;69.40
48998;DHT22;34807;51.456;7.244;2022-07-09T00:08:57;19.90;69.20
48998;DHT22;34807;51.456;7.244;2022-07-09T00:11:23;19.90;69.40
48998;DHT22;34807;51.456;7.244;2022-07-09T00:13:48;19.90;69.10
48998;DHT22;34807;51.456;7.244;2022-07-09T00:16:14;19.80;69.30
48998;DHT22;34807;51.456;7.244;2022-07-09T00:18:39;19.80;69.50
48998;DHT22;34807;51.456;7.244;2022-07-09T00:21:05;19.80;69.50
48998;DHT22;34807;51.456;7.244;2022-07-09T00:23:30;19.80;69.40
48998;DHT22;34807;51.456;7.244;2022-07-09T00:25:56;19.80;69.50
48998;DHT22;34807;51.456;7.244;2022-07-09T00:28:21;19.80;69.50
48998;DHT22;34807;51.456;7.244;2022-07-09T00:30:47;19.80;69.80
48998;DHT22;34807;51.456;7.244;2022-07-09T00:33:12;19.70;69.60
48998;DHT22;34807;51.456;7.244;2022-07-09T00:35:38;19.70;69.80
48998;DHT22;34807;51.456;7.244;2022-07-09T00:38:03;19.60;69.80
48998;DHT22;34807;51.456;7.244;2022-07-09T00:40:29;19.70;69.90
48998;DHT22;34807;51.456;7.244;2022-07-09T00:42:55;19.70;70.10
48998;DHT22;34807;51.456;7.244;2022-07-09T00:45:20;19.60;70.00
48998;DHT22;34807;51.456;7.244;2022-07-09T00:47:46;19.60;70.10
48998;DHT22;34807;51.456;7.244;2022-07-09T00:50:11;19.60;70.00
48998;DHT22;34807;51.456;7.244;2022-07-09T00:52:36;19.60;70.10
48998;DHT22;34807;51.456;7.244;2022-07-09T00:55:05;19.60;70.30
48998;DHT22;34807;51.456;7.244;2022-07-09T00:57:32;19.50;70.30
48998;DHT22;34807;51.456;7.244;2022-07-09T00:59:58;19.50;70.10
48998;DHT22;34807;51.456;7.244;2022-07-09T01:02:23;19.50;70.30
48998;DHT22;34807;51.456;7.244;2022-07-09T01:04:49;19.50;70.30
48998;DHT22;34807;51.456;7.244;2022-07-09T01:07:15;19.50;70.50
48998;DHT22;34807;51.456;7.244;2022-07-09T01:09:40;19.50;70.70
48998;DHT22;34807;51.456;7.244;2022-07-09T01:12:06;19.40;70.60
48998;DHT22;34807;51.456;7.244;2022-07-09T01:14:32;19.40;70.70
48998;DHT22;34807;51.456;7.244;2022-07-09T01:16:58;19.40;70.80
48998;DHT22;34807;51.456;7.244;2022-07-09T01:19:25;19.40;70.80
48998;DHT22;34807;51.456;7.244;2022-07-09T01:21:51;19.30;70.50
48998;DHT22;34807;51.456;7.244;2022-07-09T01:24:16;19.30;70.80
48998;DHT22;34807;51.456;7.244;2022-07-09T01:26:42;19.30;70.90
48998;DHT22;34807;51.456;7.244;2022-07-09T01:29:07;19.30;70.80
48998;DHT22;34807;51.456;7.244;2022-07-09T01:31:33;19.30;71.10
48998;DHT22;34807;51.456;7.244;2022-07-09T01:33:58;19.30;70.70
48998;DHT22;34807;51.456;7.244;2022-07-09T01:36:24;19.20;71.10
48998;DHT22;34807;51.456;7.244;2022-07-09T01:38:49;19.20;71.20
48998;DHT22;34807;51.456;7.244;2022-07-09T01:41:15;19.20;71.20
48998;DHT22;34807;51.456;7.244;2022-07-09T01:43:40;19.20;71.50
48998;DHT22;34807;51.456;7.244;2022-07-09T01:46:06;19.20;71.00
48998;DHT22;34807;51.456;7.244;2022-07-09T01:48:32;19.20;71.50
48998;DHT22;34807;51.456;7.244;2022-07-09T01:50:59;19.20;71.50
48998;DHT22;34807;51.456;7.244;2022-07-09T01:53:24;19.10;71.30
48998;DHT22;34807;51.456;7.244;2022-07-09T01:55:50;19.10;71.70
48998;DHT22;34807;51.456;7.244;2022-07-09T01:58:15;19.10;71.70
48998;DHT22;34807;51.456;7.244;2022-07-09T02:00:41;19.10;71.60
48998;DHT22;34807;51.456;7.244;2022-07-09T02:03:07;19.10;71.70
48998;DHT22;34807;51.456;7.244;2022-07-09T02:05:32;19.10;71.60
48998;DHT22;34807;51.456;7.244;2022-07-09T02:07:58;19.00;71.20
48998;DHT22;34807;51.456;7.244;2022-07-09T02:10:23;19.00;71.50
48998;DHT22;34807;51.456;7.244;2022-07-09T02:12:49;19.00;71.80
48998;DHT22;34807;51.456;7.244;2022-07-09T02:15:14;19.00;72.00
48998;DHT22;34807;51.456;7.244;2022-07-09T02:17:40;19.00;72.00
48998;DHT22;34807;51.456;7.244;2022-07-09T02:20:06;19.00;72.20
48998;DHT22;34807;51.456;7.244;2022-07-09T02:22:31;19.00;72.20
48998;DHT22;34807;51.456;7.244;2022-07-09T02:24:57;19.00;72.30
48998;DHT22;34807;51.456;7.244;2022-07-09T02:27:22;19.00;72.10
48998;DHT22;34807;51.456;7.244;2022-07-09T02:29:48;19.00;72.20
48998;DHT22;34807;51.456;7.244;2022-07-09T02:32:13;19.00;72.20
48998;DHT22;34807;51.456;7.244;2022-07-09T02:34:39;18.90;72.20
48998;DHT22;34807;51.456;7.244;2022-07-09T02:37:05;19.00;72.40
48998;DHT22;34807;51.456;7.244;2022-07-09T02:39:30;19.00;72.40
48998;DHT22;34807;51.456;7.244;2022-07-09T02:41:56;19.00;72.30
48998;DHT22;34807;51.456;7.244;2022-07-09T02:44:21;18.90;72.30
48998;DHT22;34807;51.456;7.244;2022-07-09T02:46:47;18.90;72.30
48998;DHT22;34807;51.456;7.244;2022-07-09T02:49:12;18.90;72.40
48998;DHT22;34807;51.456;7.244;2022-07-09T02:51:38;19.00;72.20
48998;DHT22;34807;51.456;7.244;2022-07-09T02:54:04;18.90;72.70
48998;DHT22;34807;51.456;7.244;2022-07-09T02:56:29;18.90;72.60
48998;DHT22;34807;51.456;7.244;2022-07-09T02:58:55;18.90;72.60
48998;DHT22;34807;51.456;7.244;2022-07-09T03:01:20;18.90;72.50
48998;DHT22;34807;51.456;7.244;2022-07-09T03:03:46;18.90;72.40
48998;DHT22;34807;51.456;7.244;2022-07-09T03:06:11;18.90;72.40
48998;DHT22;34807;51.456;7.244;2022-07-09T03:08:38;18.90;72.50
48998;DHT22;34807;51.456;7.244;2022-07-09T03:11:04;18.90;72.80
48998;DHT22;34807;51.456;7.244;2022-07-09T03:13:35;18.90;72.60
48998;DHT22;34807;51.456;7.244;2022-07-09T03:16:01;18.90;72.50
48998;DHT22;34807;51.456;7.244;2022-07-09T03:18:26;18.90;72.80
48998;DHT22;34807;51.456;7.244;2022-07-09T03:20:52;18.80;72.90
48998;DHT22;34807;51.456;7.244;2022-07-09T03:23:17;18.90;72.90
48998;DHT22;34807;51.456;7.244;2022-07-09T03:25:43;18.90;72.90
48998;DHT22;34807;51.456;7.244;2022-07-09T03:28:09;18.90;72.80
48998;DHT22;34807;51.456;7.244;2022-07-09T03:30:34;18.90;72.90
48998;DHT22;34807;51.456;7.244;2022-07-09T03:33:00;18.90;72.90
48998;DHT22;34807;51.456;7.244;2022-07-09T03:35:25;18.80;73.00
48998;DHT22;34807;51.456;7.244;2022-07-09T03:37:51;18.90;72.90
48998;DHT22;34807;51.456;7.244;2022-07-09T03:40:16;18.80;73.00
48998;DHT22;34807;51.456;7.244;2022-07-09T03:42:42;18.80;73.30
48998;DHT22;34807;51.456;7.244;2022-07-09T03:45:08;18.90;73.20
48998;DHT22;34807;51.456;7.244;2022-07-09T03:47:33;18.90;73.10
48998;DHT22;34807;51.456;7.244;2022-07-09T03:49:59;18.90;73.20
48998;DHT22;34807;51.456;7.244;2022-07-09T03:52:24;18.80;73.00
48998;DHT22;34807;51.456;7.244;2022-07-09T03:54:50;18.80;73.10
48998;DHT22;34807;51.456;7.244;2022-07-09T03:57:15;18.80;73.00
48998;DHT22;34807;51.456;7.244;2022-07-09T03:59:41;18.80;73.30
48998;DHT22;34807;51.456;7.244;2022-07-09T04:02:06;18.80;73.00
48998;DHT22;34807;51.456;7.244;2022-07-09T04:04:33;18.80;73.10
48998;DHT22;34807;51.456;7.244;2022-07-09T04:06:58;18.80;73.10
48998;DHT22;34807;51.456;7.244;2022-07-09T04:09:24;18.80;73.20
48998;DHT22;34807;51.456;7.244;2022-07-09T04:11:49;18.90;73.20
48998;DHT22;34807;51.456;7.244;2022-07-09T04:14:15;18.90;73.20
48998;DHT22;34807;51.456;7.244;2022-07-09T04:16:40;18.90;73.20
48998;DHT22;34807;51.456;7.244;2022-07-09T04:19:06;18.90;73.10
48998;DHT22;34807;51.456;7.244;2022-07-09T04:21:32;18.80;73.20
48998;DHT22;34807;51.456;7.244;2022-07-09T04:23:57;18.80;73.20
48998;DHT22;34807;51.456;7.244;2022-07-09T04:26:23;18.80;73.20
48998;DHT22;34807;51.456;7.244;2022-07-09T04:28:49;18.80;73.30
48998;DHT22;34807;51.456;7.244;2022-07-09T04:31:14;18.80;73.20
48998;DHT22;34807;51.456;7.244;2022-07-09T04:33:42;18.90;73.20
48998;DHT22;34807;51.456;7.244;2022-07-09T04:36:08;18.90;73.20
48998;DHT22;34807;51.456;7.244;2022-07-09T04:38:33;18.90;73.20
48998;DHT22;34807;51.456;7.244;2022-07-09T04:40:59;18.90;73.20
48998;DHT22;34807;51.456;7.244;2022-07-09T04:43:24;18.90;73.30
48998;DHT22;34807;51.456;7.244;2022-07-09T04:45:50;18.80;73.30
48998;DHT22;34807;51.456;7.244;2022-07-09T04:48:15;18.90;73.30
48998;DHT22;34807;51.456;7.244;2022-07-09T04:50:41;18.90;73.30
48998;DHT22;34807;51.456;7.244;2022-07-09T04:53:06;18.90;73.30
48998;DHT22;34807;51.456;7.244;2022-07-09T04:55:32;18.90;73.40
48998;DHT22;34807;51.456;7.244;2022-07-09T04:57:57;18.80;73.30
48998;DHT22;34807;51.456;7.244;2022-07-09T05:00:23;18.90;73.50
48998;DHT22;34807;51.456;7.244;2022-07-09T05:02:48;18.90;73.70
48998;DHT22;34807;51.456;7.244;2022-07-09T05:05:14;18.90;73.50
48998;DHT22;34807;51.456;7.244;2022-07-09T05:07:39;18.80;73.30
48998;DHT22;34807;51.456;7.244;2022-07-09T05:10:06;18.80;73.40
48998;DHT22;34807;51.456;7.244;2022-07-09T05:12:31;18.80;73.40
48998;DHT22;34807;51.456;7.244;2022-07-09T05:14:57;18.80;73.30
48998;DHT22;34807;51.456;7.244;2022-07-09T05:17:23;18.80;73.70
48998;DHT22;34807;51.456;7.244;2022-07-09T05:19:48;18.80;73.50
48998;DHT22;34807;51.456;7.244;2022-07-09T05:22:14;18.80;73.60
48998;DHT22;34807;51.456;7.244;2022-07-09T05:24:39;18.80;73.70
48998;DHT22;34807;51.456;7.244;2022-07-09T05:27:06;18.80;73.60
48998;DHT22;34807;51.456;7.244;2022-07-09T05:29:31;18.90;73.70
48998;DHT22;34807;51.456;7.244;2022-07-09T05:31:57;18.90;73.90
48998;DHT22;34807;51.456;7.244;2022-07-09T05:34:23;18.90;73.80
48998;DHT22;34807;51.456;7.244;2022-07-09T05:36:49;18.90;74.00
48998;DHT22;34807;51.456;7.244;2022-07-09T05:39:17;18.90;73.60
48998;DHT22;34807;51.456;7.244;2022-07-09T05:41:42;18.90;73.40
48998;DHT22;34807;51.456;7.244;2022-07-09T05:44:09;18.90;73.30
48998;DHT22;34807;51.456;7.244;2022-07-09T05:46:34;19.00;73.70
48998;DHT22;34807;51.456;7.244;2022-07-09T05:49:00;19.00;73.30
48998;DHT22;34807;51.456;7.244;2022-07-09T05:51:25;19.00;73.60
48998;DHT22;34807;51.456;7.244;2022-07-09T05:53:51;19.00;73.40
48998;DHT22;34807;51.456;7.244;2022-07-09T05:56:16;19.10;73.40
48998;DHT22;34807;51.456;7.244;2022-07-09T05:58:42;19.10;73.50
48998;DHT22;34807;51.456;7.244;2022-07-09T06:01:07;19.10;73.40
48998;DHT22;34807;51.456;7.244;2022-07-09T06:03:33;19.10;73.40
48998;DHT22;34807;51.456;7.244;2022-07-09T06:05:59;19.10;73.60
48998;DHT22;34807;51.456;7.244;2022-07-09T06:08:24;19.10;73.60
48998;DHT22;34807;51.456;7.244;2022-07-09T06:10:51;19.10;73.60
48998;DHT22;34807;51.456;7.244;2022-07-09T06:13:16;19.10;73.60
48998;DHT22;34807;51.456;7.244;2022-07-09T06:15:42;19.10;73.70
48998;DHT22;34807;51.456;7.244;2022-07-09T06:18:07;19.10;73.70
48998;DHT22;34807;51.456;7.244;2022-07-09T06:20:33;19.20;73.60
48998;DHT22;34807;51.456;7.244;2022-07-09T06:22:58;19.20;74.40
48998;DHT22;34807;51.456;7.244;2022-07-09T06:25:24;19.20;73.60
48998;DHT22;34807;51.456;7.244;2022-07-09T06:27:49;19.10;73.70
48998;DHT22;34807;51.456;7.244;2022-07-09T06:30:15;19.20;73.60
48998;DHT22;34807;51.456;7.244;2022-07-09T06:32:40;19.20;73.50
48998;DHT22;34807;51.456;7.244;2022-07-09T06:35:06;19.20;73.60
48998;DHT22;34807;51.456;7.244;2022-07-09T06:37:32;19.20;73.40
48998;DHT22;34807;51.456;7.244;2022-07-09T06:39:57;19.30;73.30
48998;DHT22;34807;51.456;7.244;2022-07-09T06:42:24;19.30;73.40
48998;DHT22;34807;51.456;7.244;2022-07-09T06:44:50;19.30;73.20
48998;DHT22;34807;51.456;7.244;2022-07-09T06:47:16;19.30;73.30
48998;DHT22;34807;51.456;7.244;2022-07-09T06:49:41;19.30;73.70
48998;DHT22;34807;51.456;7.244;2022-07-09T06:52:07;19.30;74.10
48998;DHT22;34807;51.456;7.244;2022-07-09T06:54:33;19.30;75.00
48998;DHT22;34807;51.456;7.244;2022-07-09T06:56:59;19.30;75.80
48998;DHT22;34807;51.456;7.244;2022-07-09T06:59:24;19.40;75.80
48998;DHT22;34807;51.456;7.244;2022-07-09T07:01:50;19.40;76.30
48998;DHT22;34807;51.456;7.244;2022-07-09T07:04:16;19.40;77.10
48998;DHT22;34807;51.456;7.244;2022-07-09T07:06:41;19.40;76.90
48998;DHT22;34807;51.456;7.244;2022-07-09T07:09:07;19.40;77.00
48998;DHT22;34807;51.456;7.244;2022-07-09T07:11:33;19.40;77.20
48998;DHT22;34807;51.456;7.244;2022-07-09T07:13:59;19.40;77.20
48998;DHT22;34807;51.456;7.244;2022-07-09T07:16:24;19.40;77.60
48998;DHT22;34807;51.456;7.244;2022-07-09T07:18:50;19.40;77.50
48998;DHT22;34807;51.456;7.244;2022-07-09T07:21:15;19.40;77.40
48998;DHT22;34807;51.456;7.244;2022-07-09T07:23:41;19.50;77.10
48998;DHT22;34807;51.456;7.244;2022-07-09T07:26:06;19.50;77.10
48998;DHT22;34807;51.456;7.244;2022-07-09T07:28:32;19.50;77.10
48998;DHT22;34807;51.456;7.244;2022-07-09T07:30:57;19.60;77.60
48998;DHT22;34807;51.456;7.244;2022-07-09T07:33:23;19.60;77.50
48998;DHT22;34807;51.456;7.244;2022-07-09T07:35:48;19.70;77.30
48998;DHT22;34807;51.456;7.244;2022-07-09T07:38:14;19.70;77.20
48998;DHT22;34807;51.456;7.244;2022-07-09T07:40:39;19.70;76.90
48998;DHT22;34807;51.456;7.244;2022-07-09T07:43:05;19.80;76.90
48998;DHT22;34807;51.456;7.244;2022-07-09T07:45:31;19.70;76.70
48998;DHT22;34807;51.456;7.244;2022-07-09T07:47:57;19.80;76.70
48998;DHT22;34807;51.456;7.244;2022-07-09T07:50:22;19.80;76.30
48998;DHT22;34807;51.456;7.244;2022-07-09T07:52:48;19.80;76.30
48998;DHT22;34807;51.456;7.244;2022-07-09T07:55:14;19.80;76.20
48998;DHT22;34807;51.456;7.244;2022-07-09T07:57:39;19.90;76.20
48998;DHT22;34807;51.456;7.244;2022-07-09T08:00:05;19.90;76.20
48998;DHT22;34807;51.456;7.244;2022-07-09T08:02:31;19.90;75.90
48998;DHT22;34807;51.456;7.244;2022-07-09T08:04:57;19.90;76.10
48998;DHT22;34807;51.456;7.244;2022-07-09T08:07:22;19.90;75.90
48998;DHT22;34807;51.456;7.244;2022-07-09T08:09:48;20.00;75.80
48998;DHT22;34807;51.456;7.244;2022-07-09T08:12:13;20.10;75.80
48998;DHT22;34807;51.456;7.244;2022-07-09T08:14:39;20.10;75.50
48998;DHT22;34807;51.456;7.244;2022-07-09T08:17:05;20.10;75.50
48998;DHT22;34807;51.456;7.244;2022-07-09T08:19:30;20.10;75.30
48998;DHT22;34807;51.456;7.244;2022-07-09T08:21:56;20.20;75.00
48998;DHT22;34807;51.456;7.244;2022-07-09T08:24:21;20.20;74.70
48998;DHT22;34807;51.456;7.244;2022-07-09T08:26:47;20.30;74.90
48998;DHT22;34807;51.456;7.244;2022-07-09T08:29:13;20.30;74.50
48998;DHT22;34807;51.456;7.244;2022-07-09T08:31:38;20.30;74.60
48998;DHT22;34807;51.456;7.244;2022-07-09T08:34:04;20.40;74.50
48998;DHT22;34807;51.456;7.244;2022-07-09T08:36:29;20.40;74.40
48998;DHT22;34807;51.456;7.244;2022-07-09T08:38:55;20.50;74.10
48998;DHT22;34807;51.456;7.244;2022-07-09T08:41:20;20.60;74.00
48998;DHT22;34807;51.456;7.244;2022-07-09T08:43:51;20.60;73.80
48998;DHT22;34807;51.456;7.244;2022-07-09T08:46:17;20.70;73.60
48998;DHT22;34807;51.456;7.244;2022-07-09T08:48:44;20.70;73.10
48998;DHT22;34807;51.456;7.244;2022-07-09T08:51:10;20.80;73.00
48998;DHT22;34807;51.456;7.244;2022-07-09T08:53:39;20.80;72.80
48998;DHT22;34807;51.456;7.244;2022-07-09T08:56:05;20.80;72.70
48998;DHT22;34807;51.456;7.244;2022-07-09T08:58:31;20.90;72.70
48998;DHT22;34807;51.456;7.244;2022-07-09T09:00:57;20.90;72.70
48998;DHT22;34807;51.456;7.244;2022-07-09T09:03:23;20.90;72.70
48998;DHT22;34807;51.456;7.244;2022-07-09T09:06:02;20.90;72.80
48998;DHT22;34807;51.456;7.244;2022-07-09T09:08:32;21.00;72.50
48998;DHT22;34807;51.456;7.244;2022-07-09T09:10:58;21.00;72.10
48998;DHT22;34807;51.456;7.244;2022-07-09T09:13:23;21.10;71.90
48998;DHT22;34807;51.456;7.244;2022-07-09T09:15:49;21.10;71.70
48998;DHT22;34807;51.456;7.244;2022-07-09T09:18:14;21.10;71.70
48998;DHT22;34807;51.456;7.244;2022-07-09T09:20:44;21.20;71.80
48998;DHT22;34807;51.456;7.244;2022-07-09T09:23:15;21.20;72.40
48998;DHT22;34807;51.456;7.244;2022-07-09T09:25:40;21.20;71.60
48998;DHT22;34807;51.456;7.244;2022-07-09T09:28:07;21.30;71.10
48998;DHT22;34807;51.456;7.244;2022-07-09T09:30:32;21.40;71.40
48998;DHT22;34807;51.456;7.244;2022-07-09T09:33:05;21.40;70.40
48998;DHT22;34807;51.456;7.244;2022-07-09T09:35:34;21.40;70.40
48998;DHT22;34807;51.456;7.244;2022-07-09T09:37:59;21.50;70.40
48998;DHT22;34807;51.456;7.244;2022-07-09T09:40:25;21.50;70.20
48998;DHT22;34807;51.456;7.244;2022-07-09T09:42:51;21.60;69.90
48998;DHT22;34807;51.456;7.244;2022-07-09T09:45:18;21.60;69.90
48998;DHT22;34807;51.456;7.244;2022-07-09T09:47:47;21.60;69.80
48998;DHT22;34807;51.456;7.244;2022-07-09T09:50:16;21.60;69.60
48998;DHT22;34807;51.456;7.244;2022-07-09T09:52:42;21.60;69.60
48998;DHT22;34807;51.456;7.244;2022-07-09T09:55:08;21.60;69.60
48998;DHT22;34807;51.456;7.244;2022-07-09T09:57:34;21.60;69.30
48998;DHT22;34807;51.456;7.244;2022-07-09T10:00:01;21.70;69.30
48998;DHT22;34807;51.456;7.244;2022-07-09T10:02:26;21.70;69.00
48998;DHT22;34807;51.456;7.244;2022-07-09T10:04:52;21.80;69.00
48998;DHT22;34807;51.456;7.244;2022-07-09T10:07:18;21.80;69.00
48998;DHT22;34807;51.456;7.244;2022-07-09T10:09:56;21.90;69.10
48998;DHT22;34807;51.456;7.244;2022-07-09T10:12:29;21.90;69.00
48998;DHT22;34807;51.456;7.244;2022-07-09T10:14:55;21.90;69.00
48998;DHT22;34807;51.456;7.244;2022-07-09T10:17:22;22.00;69.00
48998;DHT22;34807;51.456;7.244;2022-07-09T10:22:17;22.10;69.00
48998;DHT22;34807;51.456;7.244;2022-07-09T10:24:43;22.10;69.00
48998;DHT22;34807;51.456;7.244;2022-07-09T10:27:10;22.10;68.80
48998;DHT22;34807;51.456;7.244;2022-07-09T10:29:36;22.10;68.70
48998;DHT22;34807;51.456;7.244;2022-07-09T10:32:02;22.20;68.90
48998;DHT22;34807;51.456;7.244;2022-07-09T10:37:01;22.20;68.80
48998;DHT22;34807;51.456;7.244;2022-07-09T10:39:27;22.20;68.70
48998;DHT22;34807;51.456;7.244;2022-07-09T10:41:59;22.30;68.70
48998;DHT22;34807;51.456;7.244;2022-07-09T10:44:25;22.40;68.60
48998;DHT22;34807;51.456;7.244;2022-07-09T10:46:57;22.40;68.40
48998;DHT22;34807;51.456;7.244;2022-07-09T10:49:24;22.40;68.30
48998;DHT22;34807;51.456;7.244;2022-07-09T10:51:53;22.50;68.40
48998;DHT22;34807;51.456;7.244;2022-07-09T10:54:19;22.50;68.40
48998;DHT22;34807;51.456;7.244;2022-07-09T10:56:46;22.50;68.40
48998;DHT22;34807;51.456;7.244;2022-07-09T10:59:15;22.40;68.50
48998;DHT22;34807;51.456;7.244;2022-07-09T11:01:41;22.40;68.70
48998;DHT22;34807;51.456;7.244;2022-07-09T11:04:06;22.40;68.80
48998;DHT22;34807;51.456;7.244;2022-07-09T11:06:32;22.40;69.00
48998;DHT22;34807;51.456;7.244;2022-07-09T11:08:57;22.40;68.70
48998;DHT22;34807;51.456;7.244;2022-07-09T11:11:23;22.40;68.80
48998;DHT22;34807;51.456;7.244;2022-07-09T11:13:50;22.40;68.90
48998;DHT22;34807;51.456;7.244;2022-07-09T11:16:21;22.40;68.90
48998;DHT22;34807;51.456;7.244;2022-07-09T11:18:46;22.60;68.90
48998;DHT22;34807;51.456;7.244;2022-07-09T11:21:12;22.70;68.20
48998;DHT22;34807;51.456;7.244;2022-07-09T11:23:37;22.80;67.90
48998;DHT22;34807;51.456;7.244;2022-07-09T11:26:03;22.80;68.00
48998;DHT22;34807;51.456;7.244;2022-07-09T11:28:28;22.90;67.70
48998;DHT22;34807;51.456;7.244;2022-07-09T11:30:58;23.00;67.50
48998;DHT22;34807;51.456;7.244;2022-07-09T11:33:24;23.00;67.70
48998;DHT22;34807;51.456;7.244;2022-07-09T11:35:49;23.00;67.80
48998;DHT22;34807;51.456;7.244;2022-07-09T11:38:15;23.10;67.50
48998;DHT22;34807;51.456;7.244;2022-07-09T11:40:40;23.30;67.00
48998;DHT22;34807;51.456;7.244;2022-07-09T11:43:15;23.30;67.20
48998;DHT22;34807;51.456;7.244;2022-07-09T11:45:50;23.40;66.90
48998;DHT22;34807;51.456;7.244;2022-07-09T11:48:16;23.40;67.30
48998;DHT22;34807;51.456;7.244;2022-07-09T11:50:42;23.30;67.00
48998;DHT22;34807;51.456;7.244;2022-07-09T11:53:18;23.30;67.50
48998;DHT22;34807;51.456;7.244;2022-07-09T11:55:44;23.20;67.60
48998;DHT22;34807;51.456;7.244;2022-07-09T11:58:09;23.10;67.90
48998;DHT22;34807;51.456;7.244;2022-07-09T12:00:35;23.00;68.00
48998;DHT22;34807;51.456;7.244;2022-07-09T12:03:05;22.90;68.00
48998;DHT22;34807;51.456;7.244;2022-07-09T12:05:31;22.90;67.80
48998;DHT22;34807;51.456;7.244;2022-07-09T12:07:57;22.90;67.80
48998;DHT22;34807;51.456;7.244;2022-07-09T12:10:28;22.90;68.20
48998;DHT22;34807;51.456;7.244;2022-07-09T12:12:54;22.90;68.00
48998;DHT22;34807;51.456;7.244;2022-07-09T12:15:19;23.00;68.10
48998;DHT22;34807;51.456;7.244;2022-07-09T12:17:45;23.00;67.80
48998;DHT22;34807;51.456;7.244;2022-07-09T12:20:15;23.00;67.50
48998;DHT22;34807;51.456;7.244;2022-07-09T12:22:41;23.00;67.40
48998;DHT22;34807;51.456;7.244;2022-07-09T12:25:07;23.00;67.50
48998;DHT22;34807;51.456;7.244;2022-07-09T12:27:33;23.00;67.80
48998;DHT22;34807;51.456;7.244;2022-07-09T12:29:58;22.80;68.10
48998;DHT22;34807;51.456;7.244;2022-07-09T12:32:24;22.80;68.00
48998;DHT22;34807;51.456;7.244;2022-07-09T12:34:49;22.70;68.10
48998;DHT22;34807;51.456;7.244;2022-07-09T12:37:15;22.70;68.40
48998;DHT22;34807;51.456;7.244;2022-07-09T12:39:41;22.70;68.70
48998;DHT22;34807;51.456;7.244;2022-07-09T12:42:06;22.60;69.80
48998;DHT22;34807;51.456;7.244;2022-07-09T12:44:32;22.50;70.30
48998;DHT22;34807;51.456;7.244;2022-07-09T12:46:57;22.30;71.50
48998;DHT22;34807;51.456;7.244;2022-07-09T12:49:23;22.30;72.90
48998;DHT22;34807;51.456;7.244;2022-07-09T12:51:48;22.20;74.40
48998;DHT22;34807;51.456;7.244;2022-07-09T12:54:14;22.20;74.10
48998;DHT22;34807;51.456;7.244;2022-07-09T12:56:39;22.10;74.20
48998;DHT22;34807;51.456;7.244;2022-07-09T12:59:05;22.10;76.00
48998;DHT22;34807;51.456;7.244;2022-07-09T13:01:31;22.10;76.70
48998;DHT22;34807;51.456;7.244;2022-07-09T13:03:56;22.00;77.90
48998;DHT22;34807;51.456;7.244;2022-07-09T13:06:22;22.00;77.90
48998;DHT22;34807;51.456;7.244;2022-07-09T13:08:56;21.90;78.60
48998;DHT22;34807;51.456;7.244;2022-07-09T13:11:22;21.90;79.80
48998;DHT22;34807;51.456;7.244;2022-07-09T13:13:47;21.80;80.80
48998;DHT22;34807;51.456;7.244;2022-07-09T13:16:13;21.80;82.00
48998;DHT22;34807;51.456;7.244;2022-07-09T13:18:39;21.80;83.10
48998;DHT22;34807;51.456;7.244;2022-07-09T13:21:04;21.70;82.80
48998;DHT22;34807;51.456;7.244;2022-07-09T13:23:30;21.70;82.80
48998;DHT22;34807;51.456;7.244;2022-07-09T13:25:56;21.60;82.00
48998;DHT22;34807;51.456;7.244;2022-07-09T13:28:21;21.60;83.10
48998;DHT22;34807;51.456;7.244;2022-07-09T13:30:47;21.60;84.30
48998;DHT22;34807;51.456;7.244;2022-07-09T13:33:12;21.60;83.40
48998;DHT22;34807;51.456;7.244;2022-07-09T13:35:38;21.60;82.20
48998;DHT22;34807;51.456;7.244;2022-07-09T13:38:04;21.60;83.60
48998;DHT22;34807;51.456;7.244;2022-07-09T13:40:29;21.60;84.00
48998;DHT22;34807;51.456;7.244;2022-07-09T13:42:55;21.60;84.10
48998;DHT22;34807;51.456;7.244;2022-07-09T13:45:20;21.70;84.00
48998;DHT22;34807;51.456;7.244;2022-07-09T13:47:46;21.80;81.60
48998;DHT22;34807;51.456;7.244;2022-07-09T13:50:11;21.90;79.90
48998;DHT22;34807;51.456;7.244;2022-07-09T13:52:37;22.10;80.90
48998;DHT22;34807;51.456;7.244;2022-07-09T13:55:02;22.20;81.50
48998;DHT22;34807;51.456;7.244;2022-07-09T13:57:28;22.30;82.50
48998;DHT22;34807;51.456;7.244;2022-07-09T13:59:53;22.50;82.20
48998;DHT22;34807;51.456;7.244;2022-07-09T14:02:19;22.60;81.10
48998;DHT22;34807;51.456;7.244;2022-07-09T14:04:44;22.60;81.10
48998;DHT22;34807;51.456;7.244;2022-07-09T14:07:12;22.70;80.50
48998;DHT22;34807;51.456;7.244;2022-07-09T14:09:37;22.80;80.00
48998;DHT22;34807;51.456;7.244;2022-07-09T14:12:03;23.00;80.60
48998;DHT22;34807;51.456;7.244;2022-07-09T14:14:29;23.10;81.10
48998;DHT22;34807;51.456;7.244;2022-07-09T14:16:54;23.10;81.30
48998;DHT22;34807;51.456;7.244;2022-07-09T14:19:20;23.20;81.90
48998;DHT22;34807;51.456;7.244;2022-07-09T14:21:45;23.20;82.40
48998;DHT22;34807;51.456;7.244;2022-07-09T14:24:11;23.30;81.30
48998;DHT22;34807;51.456;7.244;2022-07-09T14:26:36;23.40;81.30
48998;DHT22;34807;51.456;7.244;2022-07-09T14:29:02;23.60;81.60
48998;DHT22;34807;51.456;7.244;2022-07-09T14:31:27;23.70;81.10
48998;DHT22;34807;51.456;7.244;2022-07-09T14:33:53;23.80;80.00
48998;DHT22;34807;51.456;7.244;2022-07-09T14:36:19;23.80;79.70
48998;DHT22;34807;51.456;7.244;2022-07-09T14:38:45;23.90;79.60
48998;DHT22;34807;51.456;7.244;2022-07-09T14:41:10;24.00;78.70
48998;DHT22;34807;51.456;7.244;2022-07-09T14:43:36;24.10;78.00
48998;DHT22;34807;51.456;7.244;2022-07-09T14:46:06;24.10;77.80
48998;DHT22;34807;51.456;7.244;2022-07-09T14:48:31;24.00;76.80
48998;DHT22;34807;51.456;7.244;2022-07-09T14:50:57;24.00;76.90
48998;DHT22;34807;51.456;7.244;2022-07-09T14:53:22;24.00;76.00
48998;DHT22;34807;51.456;7.244;2022-07-09T14:55:48;23.90;74.60
48998;DHT22;34807;51.456;7.244;2022-07-09T14:58:13;23.90;75.50
48998;DHT22;34807;51.456;7.244;2022-07-09T15:00:39;24.00;74.60
48998;DHT22;34807;51.456;7.244;2022-07-09T15:03:04;24.10;73.20
48998;DHT22;34807;51.456;7.244;2022-07-09T15:05:30;24.20;71.30
48998;DHT22;34807;51.456;7.244;2022-07-09T15:07:56;24.30;70.00
48998;DHT22;34807;51.456;7.244;2022-07-09T15:10:21;24.30;69.50
48998;DHT22;34807;51.456;7.244;2022-07-09T15:12:47;24.40;68.00
48998;DHT22;34807;51.456;7.244;2022-07-09T15:15:12;24.50;68.10
48998;DHT22;34807;51.456;7.244;2022-07-09T15:17:38;24.50;67.30
48998;DHT22;34807;51.456;7.244;2022-07-09T15:20:03;24.50;67.00
48998;DHT22;34807;51.456;7.244;2022-07-09T15:22:29;24.50;66.80
48998;DHT22;34807;51.456;7.244;2022-07-09T15:24:55;24.60;66.50
48998;DHT22;34807;51.456;7.244;2022-07-09T15:27:20;24.70;65.30